sensor_id;sensor_type;location;lat;lon;timestamp;temperature;humidity
6738;DHT22;3406;49.902;8.596;2022-10-15T00:01:05;15.50;99.90
6738;DHT22;3406;49.902;8.596;2022-10-15T00:03:34;15.50;99.90
6738;DHT22;3406;49.902;8.596;2022-10-15T00:06:03;15.50;99.90
6738;DHT22;3406;49.902;8.596;2022-10-15T00:08:31;15.50;99.90
6738;DHT22;3406;49.902;8.596;2022-10-15T00:11:03;15.50;99.90
6738;DHT22;3406;49.902;8.596;2022-10-15T00:13:30;15.50;99.90
6738;DHT22;3406;49.902;8.596;2022-10-15T00:15:57;15.50;99.90
6738;DHT22;3406;49.902;8.596;2022-10-15T00:18:24;15.60;99.90
6738;DHT22;3406;49.902;8.596;2022-10-15T00:20:50;15.60;99.90
6738;DHT22;3406;49.902;8.596;2022-10-15T00:23:17;15.60;99.90
6738;DHT22;3406;49.902;8.596;2022-10-15T00:25:44;15.60;99.90
6738;DHT22;3406;49.902;8.596;2022-10-15T00:28:12;15.60;99.90
6738;DHT22;3406;49.902;8.596;2022-10-15T00:30:38;15.60;99.90
6738;DHT22;3406;49.902;8.596;2022-10-15T00:33:05;15.60;99.90
6738;DHT22;3406;49.902;8.596;2022-10-15T00:35:32;15.60;99.90
6738;DHT22;3406;49.902;8.596;2022-10-15T00:37:58;15.60;99.90
6738;DHT22;3406;49.902;8.596;2022-10-15T00:40:25;15.60;99.90
6738;DHT22;3406;49.902;8.596;2022-10-15T00:42:52;15.60;99.90
6738;DHT22;3406;49.902;8.596;2022-10-15T00:45:20;15.60;99.90
6738;DHT22;3406;49.902;8.596;2022-10-15T00:47:48;15.60;99.90
6738;DHT22;3406;49.902;8.596;2022-10-15T00:50:17;15.60;99.90
6738;DHT22;3406;49.902;8.596;2022-10-15T00:52:54;15.70;99.90
6738;DHT22;3406;49.902;8.596;2022-10-15T00:55:26;15.70;99.90
6738;DHT22;3406;49.902;8.596;2022-10-15T00:57:55;15.70;99.90
6738;DHT22;3406;49.902;8.596;2022-10-15T01:00:23;15.70;99.90
6738;DHT22;3406;49.902;8.596;2022-10-15T01:02:50;15.70;99.90
6738;DHT22;3406;49.902;8.596;2022-10-15T01:05:17;15.70;99.90
6738;DHT22;3406;49.902;8.596;2022-10-15T01:07:44;15.70;99.90
6738;DHT22;3406;49.902;8.596;2022-10-15T01:10:11;15.70;99.90
6738;DHT22;3406;49.902;8.596;2022-10-15T01:13:01;15.70;99.90
6738;DHT22;3406;49.902;8.596;2022-10-15T01:15:36;15.70;99.90
6738;DHT22;3406;49.902;8.596;2022-10-15T01:18:10;15.80;99.90
6738;DHT22;3406;49.902;8.596;2022-10-15T01:20:52;15.70;99.90
6738;DHT22;3406;49.902;8.596;2022-10-15T01:23:47;15.70;99.90
6738;DHT22;3406;49.902;8.596;2022-10-15T01:26:33;15.70;99.90
6738;DHT22;3406;49.902;8.596;2022-10-15T01:29:11;15.80;99.90
6738;DHT22;3406;49.902;8.596;2022-10-15T01:31:45;15.70;99.90
6738;DHT22;3406;49.902;8.596;2022-10-15T01:34:19;15.80;99.90
6738;DHT22;3406;49.902;8.596;2022-10-15T01:36:53;15.80;99.90
6738;DHT22;3406;49.902;8.596;2022-10-15T01:39:24;15.80;99.90
6738;DHT22;3406;49.902;8.596;2022-10-15T01:41:57;15.70;99.90
6738;DHT22;3406;49.902;8.596;2022-10-15T01:44:28;15.70;99.90
6738;DHT22;3406;49.902;8.596;2022-10-15T01:47:01;15.70;99.90
6738;DHT22;3406;49.902;8.596;2022-10-15T01:49:31;15.80;99.90
6738;DHT22;3406;49.902;8.596;2022-10-15T01:52:04;15.80;99.90
6738;DHT22;3406;49.902;8.596;2022-10-15T01:54:31;15.80;99.90
6738;DHT22;3406;49.902;8.596;2022-10-15T01:56:59;15.80;99.90
6738;DHT22;3406;49.902;8.596;2022-10-15T01:59:29;15.80;99.90
6738;DHT22;3406;49.902;8.596;2022-10-15T02:01:58;15.80;99.90
6738;DHT22;3406;49.902;8.596;2022-10-15T02:04:26;15.90;99.90
6738;DHT22;3406;49.902;8.596;2022-10-15T02:06:58;15.80;99.90
6738;DHT22;3406;49.902;8.596;2022-10-15T02:09:33;15.80;99.90
6738;DHT22;3406;49.902;8.596;2022-10-15T02:12:10;15.80;99.90
6738;DHT22;3406;49.902;8.596;2022-10-15T02:14:46;15.80;99.90
6738;DHT22;3406;49.902;8.596;2022-10-15T02:17:22;15.80;99.90
6738;DHT22;3406;49.902;8.596;2022-10-15T02:19:52;15.90;99.90
6738;DHT22;3406;49.902;8.596;2022-10-15T02:22:25;15.80;99.90
6738;DHT22;3406;49.902;8.596;2022-10-15T02:24:56;15.80;99.90
6738;DHT22;3406;49.902;8.596;2022-10-15T02:27:25;15.80;99.90
6738;DHT22;3406;49.902;8.596;2022-10-15T02:29:54;15.80;99.90
6738;DHT22;3406;49.902;8.596;2022-10-15T02:32:24;15.80;99.90
6738;DHT22;3406;49.902;8.596;2022-10-15T02:34:52;15.80;99.90
6738;DHT22;3406;49.902;8.596;2022-10-15T02:37:22;15.80;99.90
6738;DHT22;3406;49.902;8.596;2022-10-15T02:39:49;15.80;99.90
6738;DHT22;3406;49.902;8.596;2022-10-15T02:42:16;15.80;99.90
6738;DHT22;3406;49.902;8.596;2022-10-15T02:44:44;15.80;99.90
6738;DHT22;3406;49.902;8.596;2022-10-15T02:47:11;15.80;99.90
6738;DHT22;3406;49.902;8.596;2022-10-15T02:49:39;15.80;99.90
6738;DHT22;3406;49.902;8.596;2022-10-15T02:52:05;15.90;99.90
6738;DHT22;3406;49.902;8.596;2022-10-15T02:54:32;15.90;99.90
6738;DHT22;3406;49.902;8.596;2022-10-15T02:56:59;15.90;99.90
6738;DHT22;3406;49.902;8.596;2022-10-15T02:59:25;15.90;99.90
6738;DHT22;3406;49.902;8.596;2022-10-15T03:01:52;15.80;99.90
6738;DHT22;3406;49.902;8.596;2022-10-15T03:04:19;15.90;99.90
6738;DHT22;3406;49.902;8.596;2022-10-15T03:06:47;15.90;99.90
6738;DHT22;3406;49.902;8.596;2022-10-15T03:09:14;15.90;99.90
6738;DHT22;3406;49.902;8.596;2022-10-15T03:11:40;15.80;99.90
6738;DHT22;3406;49.902;8.596;2022-10-15T03:14:07;15.80;99.90
6738;DHT22;3406;49.902;8.596;2022-10-15T03:16:33;15.90;99.90
6738;DHT22;3406;49.902;8.596;2022-10-15T03:19:00;15.90;99.90
6738;DHT22;3406;49.902;8.596;2022-10-15T03:21:27;15.80;99.90
6738;DHT22;3406;49.902;8.596;2022-10-15T03:23:56;15.90;99.90
6738;DHT22;3406;49.902;8.596;2022-10-15T03:26:23;15.90;99.90
6738;DHT22;3406;49.902;8.596;2022-10-15T03:28:50;15.80;99.90
6738;DHT22;3406;49.902;8.596;2022-10-15T03:31:17;15.80;99.90
6738;DHT22;3406;49.902;8.596;2022-10-15T03:33:44;15.90;99.90
6738;DHT22;3406;49.902;8.596;2022-10-15T03:36:10;15.80;99.90
6738;DHT22;3406;49.902;8.596;2022-10-15T03:38:37;15.80;99.90
6738;DHT22;3406;49.902;8.596;2022-10-15T03:41:05;15.90;99.90
6738;DHT22;3406;49.902;8.596;2022-10-15T03:43:32;15.80;99.90
6738;DHT22;3406;49.902;8.596;2022-10-15T03:46:00;15.90;99.90
6738;DHT22;3406;49.902;8.596;2022-10-15T03:48:27;15.80;99.90
6738;DHT22;3406;49.902;8.596;2022-10-15T03:50:54;15.80;99.90
6738;DHT22;3406;49.902;8.596;2022-10-15T03:53:21;15.90;99.90
6738;DHT22;3406;49.902;8.596;2022-10-15T03:55:48;15.90;99.90
6738;DHT22;3406;49.902;8.596;2022-10-15T03:58:16;15.80;99.90
6738;DHT22;3406;49.902;8.596;2022-10-15T04:00:43;15.90;99.90
6738;DHT22;3406;49.902;8.596;2022-10-15T04:03:10;15.90;99.90
6738;DHT22;3406;49.902;8.596;2022-10-15T04:05:37;15.90;99.90
6738;DHT22;3406;49.902;8.596;2022-10-15T04:08:04;15.90;99.90
6738;DHT22;3406;49.902;8.596;2022-10-15T04:10:31;15.90;99.90
6738;DHT22;3406;49.902;8.596;2022-10-15T04:12:58;15.90;99.90
6738;DHT22;3406;49.902;8.596;2022-10-15T04:15:26;15.90;99.90
6738;DHT22;3406;49.902;8.596;2022-10-15T04:17:53;15.90;99.90
6738;DHT22;3406;49.902;8.596;2022-10-15T04:20:19;15.90;99.90
6738;DHT22;3406;49.902;8.596;2022-10-15T04:22:46;15.90;99.90
6738;DHT22;3406;49.902;8.596;2022-10-15T04:25:13;15.90;99.90
6738;DHT22;3406;49.902;8.596;2022-10-15T04:27:40;15.90;99.90
6738;DHT22;3406;49.902;8.596;2022-10-15T04:30:07;15.90;99.90
6738;DHT22;3406;49.902;8.596;2022-10-15T04:32:35;15.90;99.90
6738;DHT22;3406;49.902;8.596;2022-10-15T04:35:02;15.90;99.90
6738;DHT22;3406;49.902;8.596;2022-10-15T04:37:32;15.90;99.90
6738;DHT22;3406;49.902;8.596;2022-10-15T04:39:58;15.90;99.90
6738;DHT22;3406;49.902;8.596;2022-10-15T04:42:27;15.90;99.90
6738;DHT22;3406;49.902;8.596;2022-10-15T04:44:55;15.90;99.90
6738;DHT22;3406;49.902;8.596;2022-10-15T04:47:21;15.90;99.90
6738;DHT22;3406;49.902;8.596;2022-10-15T04:49:49;15.90;99.90
6738;DHT22;3406;49.902;8.596;2022-10-15T04:52:16;15.90;99.90
6738;DHT22;3406;49.902;8.596;2022-10-15T04:54:43;15.90;99.90
6738;DHT22;3406;49.902;8.596;2022-10-15T04:57:09;15.90;99.90
6738;DHT22;3406;49.902;8.596;2022-10-15T04:59:36;15.90;99.90
6738;DHT22;3406;49.902;8.596;2022-10-15T05:02:03;15.90;99.90
6738;DHT22;3406;49.902;8.596;2022-10-15T05:04:29;15.90;99.90
6738;DHT22;3406;49.902;8.596;2022-10-15T05:06:57;15.90;99.90
6738;DHT22;3406;49.902;8.596;2022-10-15T05:09:24;15.90;99.90
6738;DHT22;3406;49.902;8.596;2022-10-15T05:11:51;15.90;99.90
6738;DHT22;3406;49.902;8.596;2022-10-15T05:14:17;15.90;99.90
6738;DHT22;3406;49.902;8.596;2022-10-15T05:16:44;15.90;99.90
6738;DHT22;3406;49.902;8.596;2022-10-15T05:19:11;15.90;99.90
6738;DHT22;3406;49.902;8.596;2022-10-15T05:21:38;15.90;99.90
6738;DHT22;3406;49.902;8.596;2022-10-15T05:24:06;15.90;99.90
6738;DHT22;3406;49.902;8.596;2022-10-15T05:26:33;15.90;99.90
6738;DHT22;3406;49.902;8.596;2022-10-15T05:29:00;15.90;99.90
6738;DHT22;3406;49.902;8.596;2022-10-15T05:31:29;15.90;99.90
6738;DHT22;3406;49.902;8.596;2022-10-15T05:33:56;15.90;99.90
6738;DHT22;3406;49.902;8.596;2022-10-15T05:36:24;15.90;99.90
6738;DHT22;3406;49.902;8.596;2022-10-15T05:38:53;15.90;99.90
6738;DHT22;3406;49.902;8.596;2022-10-15T05:41:21;15.90;99.90
6738;DHT22;3406;49.902;8.596;2022-10-15T05:43:49;15.90;99.90
6738;DHT22;3406;49.902;8.596;2022-10-15T05:46:17;15.90;99.90
6738;DHT22;3406;49.902;8.596;2022-10-15T05:48:47;16.00;99.90
6738;DHT22;3406;49.902;8.596;2022-10-15T05:51:14;15.90;99.90
6738;DHT22;3406;49.902;8.596;2022-10-15T05:53:41;15.90;99.90
6738;DHT22;3406;49.902;8.596;2022-10-15T05:56:11;15.90;99.90
6738;DHT22;3406;49.902;8.596;2022-10-15T05:58:39;15.90;99.90
6738;DHT22;3406;49.902;8.596;2022-10-15T06:01:08;15.90;99.90
6738;DHT22;3406;49.902;8.596;2022-10-15T06:03:35;15.90;99.90
6738;DHT22;3406;49.902;8.596;2022-10-15T06:06:02;15.90;99.90
6738;DHT22;3406;49.902;8.596;2022-10-15T06:08:29;15.90;99.90
6738;DHT22;3406;49.902;8.596;2022-10-15T06:11:01;15.90;99.90
6738;DHT22;3406;49.902;8.596;2022-10-15T06:13:28;15.80;99.90
6738;DHT22;3406;49.902;8.596;2022-10-15T06:15:56;15.80;99.90
6738;DHT22;3406;49.902;8.596;2022-10-15T06:18:23;15.80;99.90
6738;DHT22;3406;49.902;8.596;2022-10-15T06:20:50;15.80;99.90
6738;DHT22;3406;49.902;8.596;2022-10-15T06:23:18;15.90;99.90
6738;DHT22;3406;49.902;8.596;2022-10-15T06:25:45;15.90;99.90
6738;DHT22;3406;49.902;8.596;2022-10-15T06:28:13;15.80;99.90
6738;DHT22;3406;49.902;8.596;2022-10-15T06:30:40;15.80;99.90
6738;DHT22;3406;49.902;8.596;2022-10-15T06:33:08;15.90;99.90
6738;DHT22;3406;49.902;8.596;2022-10-15T06:35:35;15.90;99.90
6738;DHT22;3406;49.902;8.596;2022-10-15T06:38:02;15.90;99.90
6738;DHT22;3406;49.902;8.596;2022-10-15T06:40:30;15.90;99.90
6738;DHT22;3406;49.902;8.596;2022-10-15T06:43:02;15.90;99.90
6738;DHT22;3406;49.902;8.596;2022-10-15T06:45:29;15.90;99.90
6738;DHT22;3406;49.902;8.596;2022-10-15T06:47:56;15.90;99.90
6738;DHT22;3406;49.902;8.596;2022-10-15T06:50:24;15.90;99.90
6738;DHT22;3406;49.902;8.596;2022-10-15T06:52:50;15.90;99.90
6738;DHT22;3406;49.902;8.596;2022-10-15T06:55:17;15.90;99.90
6738;DHT22;3406;49.902;8.596;2022-10-15T06:57:44;15.90;99.90
6738;DHT22;3406;49.902;8.596;2022-10-15T07:00:12;16.00;99.90
6738;DHT22;3406;49.902;8.596;2022-10-15T07:02:39;16.00;99.90
6738;DHT22;3406;49.902;8.596;2022-10-15T07:05:06;16.00;99.90
6738;DHT22;3406;49.902;8.596;2022-10-15T07:07:34;16.00;99.90
6738;DHT22;3406;49.902;8.596;2022-10-15T07:10:01;16.00;99.90
6738;DHT22;3406;49.902;8.596;2022-10-15T07:12:28;16.00;99.90
6738;DHT22;3406;49.902;8.596;2022-10-15T07:14:54;16.00;99.90
6738;DHT22;3406;49.902;8.596;2022-10-15T07:17:21;16.10;99.90
6738;DHT22;3406;49.902;8.596;2022-10-15T07:19:48;16.10;99.90
6738;DHT22;3406;49.902;8.596;2022-10-15T07:22:15;16.10;99.90
6738;DHT22;3406;49.902;8.596;2022-10-15T07:24:43;16.10;99.90
6738;DHT22;3406;49.902;8.596;2022-10-15T07:27:09;16.20;99.90
6738;DHT22;3406;49.902;8.596;2022-10-15T07:29:36;16.20;99.90
6738;DHT22;3406;49.902;8.596;2022-10-15T07:32:03;16.20;99.90
6738;DHT22;3406;49.902;8.596;2022-10-15T07:34:29;16.20;99.90
6738;DHT22;3406;49.902;8.596;2022-10-15T07:36:56;16.20;99.90
6738;DHT22;3406;49.902;8.596;2022-10-15T07:39:23;16.30;99.90
6738;DHT22;3406;49.902;8.596;2022-10-15T07:41:51;16.30;99.90
6738;DHT22;3406;49.902;8.596;2022-10-15T07:44:18;16.40;99.90
6738;DHT22;3406;49.902;8.596;2022-10-15T07:46:46;16.50;99.90
6738;DHT22;3406;49.902;8.596;2022-10-15T07:49:13;16.50;99.90
6738;DHT22;3406;49.902;8.596;2022-10-15T07:51:40;16.50;99.90
6738;DHT22;3406;49.902;8.596;2022-10-15T07:54:07;16.60;99.90
6738;DHT22;3406;49.902;8.596;2022-10-15T07:56:34;16.60;99.90
6738;DHT22;3406;49.902;8.596;2022-10-15T07:59:02;16.60;99.90
6738;DHT22;3406;49.902;8.596;2022-10-15T08:01:29;16.60;99.90
6738;DHT22;3406;49.902;8.596;2022-10-15T08:03:55;16.60;99.90
6738;DHT22;3406;49.902;8.596;2022-10-15T08:06:22;16.60;99.90
6738;DHT22;3406;49.902;8.596;2022-10-15T08:08:49;16.60;99.90
6738;DHT22;3406;49.902;8.596;2022-10-15T08:11:16;16.60;99.90
6738;DHT22;3406;49.902;8.596;2022-10-15T08:13:43;16.70;99.90
6738;DHT22;3406;49.902;8.596;2022-10-15T08:16:14;16.80;99.90
6738;DHT22;3406;49.902;8.596;2022-10-15T08:18:41;16.90;99.90
6738;DHT22;3406;49.902;8.596;2022-10-15T08:21:09;17.00;99.90
6738;DHT22;3406;49.902;8.596;2022-10-15T08:23:36;17.00;99.90
6738;DHT22;3406;49.902;8.596;2022-10-15T08:26:03;17.00;99.90
6738;DHT22;3406;49.902;8.596;2022-10-15T08:28:31;17.00;99.90
6738;DHT22;3406;49.902;8.596;2022-10-15T08:30:59;17.10;99.90
6738;DHT22;3406;49.902;8.596;2022-10-15T08:33:28;17.10;99.90
6738;DHT22;3406;49.902;8.596;2022-10-15T08:35:55;17.20;99.90
6738;DHT22;3406;49.902;8.596;2022-10-15T08:38:22;17.30;99.90
6738;DHT22;3406;49.902;8.596;2022-10-15T08:40:51;17.30;99.90
6738;DHT22;3406;49.902;8.596;2022-10-15T08:43:24;17.40;99.90
6738;DHT22;3406;49.902;8.596;2022-10-15T08:45:56;17.40;99.90
6738;DHT22;3406;49.902;8.596;2022-10-15T08:48:29;17.40;99.90
6738;DHT22;3406;49.902;8.596;2022-10-15T08:51:00;17.40;99.90
6738;DHT22;3406;49.902;8.596;2022-10-15T08:53:28;17.40;99.90
6738;DHT22;3406;49.902;8.596;2022-10-15T08:55:59;17.40;99.90
6738;DHT22;3406;49.902;8.596;2022-10-15T08:58:44;17.40;99.90
6738;DHT22;3406;49.902;8.596;2022-10-15T09:01:17;17.40;99.90
6738;DHT22;3406;49.902;8.596;2022-10-15T09:03:53;17.40;99.90
6738;DHT22;3406;49.902;8.596;2022-10-15T09:06:23;17.50;99.90
6738;DHT22;3406;49.902;8.596;2022-10-15T09:08:57;17.50;99.90
6738;DHT22;3406;49.902;8.596;2022-10-15T09:11:33;17.50;99.90
6738;DHT22;3406;49.902;8.596;2022-10-15T09:14:01;17.50;99.90
6738;DHT22;3406;49.902;8.596;2022-10-15T09:16:32;17.50;99.90
6738;DHT22;3406;49.902;8.596;2022-10-15T09:19:05;17.50;99.90
6738;DHT22;3406;49.902;8.596;2022-10-15T09:21:37;17.50;99.90
6738;DHT22;3406;49.902;8.596;2022-10-15T09:24:04;17.50;99.90
6738;DHT22;3406;49.902;8.596;2022-10-15T09:26:39;17.50;99.90
6738;DHT22;3406;49.902;8.596;2022-10-15T09:29:16;17.60;99.90
6738;DHT22;3406;49.902;8.596;2022-10-15T09:31:50;17.60;99.90
6738;DHT22;3406;49.902;8.596;2022-10-15T09:34:24;17.60;99.90
6738;DHT22;3406;49.902;8.596;2022-10-15T09:36:56;17.60;99.90
6738;DHT22;3406;49.902;8.596;2022-10-15T09:39:39;17.70;99.90
6738;DHT22;3406;49.902;8.596;2022-10-15T09:42:17;17.70;99.90
6738;DHT22;3406;49.902;8.596;2022-10-15T09:44:51;17.70;99.90
6738;DHT22;3406;49.902;8.596;2022-10-15T09:47:24;17.70;99.90
6738;DHT22;3406;49.902;8.596;2022-10-15T09:49:52;17.80;99.90
6738;DHT22;3406;49.902;8.596;2022-10-15T09:52:26;17.80;99.90
6738;DHT22;3406;49.902;8.596;2022-10-15T09:55:02;17.90;99.90
6738;DHT22;3406;49.902;8.596;2022-10-15T09:57:34;18.00;99.90
6738;DHT22;3406;49.902;8.596;2022-10-15T10:00:05;18.00;99.90
6738;DHT22;3406;49.902;8.596;2022-10-15T10:02:32;18.00;99.90
6738;DHT22;3406;49.902;8.596;2022-10-15T10:05:18;18.00;99.90
6738;DHT22;3406;49.902;8.596;2022-10-15T10:07:45;18.00;99.90
6738;DHT22;3406;49.902;8.596;2022-10-15T10:10:22;17.90;99.90
6738;DHT22;3406;49.902;8.596;2022-10-15T10:12:50;17.90;99.90
6738;DHT22;3406;49.902;8.596;2022-10-15T10:15:30;17.90;99.90
6738;DHT22;3406;49.902;8.596;2022-10-15T10:17:58;17.90;99.90
6738;DHT22;3406;49.902;8.596;2022-10-15T10:20:27;17.90;99.90
6738;DHT22;3406;49.902;8.596;2022-10-15T10:22:56;17.90;99.90
6738;DHT22;3406;49.902;8.596;2022-10-15T10:25:32;17.90;99.90
6738;DHT22;3406;49.902;8.596;2022-10-15T10:28:05;17.80;99.90
6738;DHT22;3406;49.902;8.596;2022-10-15T10:30:46;17.80;99.90
6738;DHT22;3406;49.902;8.596;2022-10-15T10:33:18;17.80;99.90
6738;DHT22;3406;49.902;8.596;2022-10-15T10:35:49;17.70;99.90
6738;DHT22;3406;49.902;8.596;2022-10-15T10:38:19;17.70;99.90
6738;DHT22;3406;49.902;8.596;2022-10-15T10:40:50;17.70;99.90
6738;DHT22;3406;49.902;8.596;2022-10-15T10:43:22;17.60;99.90
6738;DHT22;3406;49.902;8.596;2022-10-15T10:45:55;17.60;99.90
6738;DHT22;3406;49.902;8.596;2022-10-15T10:48:24;17.60;99.90
6738;DHT22;3406;49.902;8.596;2022-10-15T10:51:11;17.60;99.90
6738;DHT22;3406;49.902;8.596;2022-10-15T10:53:46;17.60;99.90
6738;DHT22;3406;49.902;8.596;2022-10-15T10:56:15;17.60;99.90
6738;DHT22;3406;49.902;8.596;2022-10-15T10:58:42;17.60;99.90
6738;DHT22;3406;49.902;8.596;2022-10-15T11:01:11;17.60;99.90
6738;DHT22;3406;49.902;8.596;2022-10-15T11:03:40;17.70;99.90
6738;DHT22;3406;49.902;8.596;2022-10-15T11:09:17;17.90;99.90
6738;DHT22;3406;49.902;8.596;2022-10-15T11:11:54;18.00;99.90
6738;DHT22;3406;49.902;8.596;2022-10-15T11:14:28;18.10;99.90
6738;DHT22;3406;49.902;8.596;2022-10-15T11:17:00;18.10;99.90
6738;DHT22;3406;49.902;8.596;2022-10-15T11:19:36;18.20;99.90
6738;DHT22;3406;49.902;8.596;2022-10-15T11:22:18;18.20;99.90
6738;DHT22;3406;49.902;8.596;2022-10-15T11:24:53;18.30;99.90
6738;DHT22;3406;49.902;8.596;2022-10-15T11:27:44;18.40;99.90
6738;DHT22;3406;49.902;8.596;2022-10-15T11:30:25;18.40;99.90
6738;DHT22;3406;49.902;8.596;2022-10-15T11:33:04;18.40;99.90
6738;DHT22;3406;49.902;8.596;2022-10-15T11:35:38;18.40;99.90
6738;DHT22;3406;49.902;8.596;2022-10-15T11:38:15;18.40;99.90
6738;DHT22;3406;49.902;8.596;2022-10-15T11:40:50;18.40;99.90
6738;DHT22;3406;49.902;8.596;2022-10-15T11:43:34;18.30;99.90
6738;DHT22;3406;49.902;8.596;2022-10-15T11:46:12;18.30;99.90
6738;DHT22;3406;49.902;8.596;2022-10-15T11:48:47;18.20;99.90
6738;DHT22;3406;49.902;8.596;2022-10-15T11:51:25;18.20;99.90
6738;DHT22;3406;49.902;8.596;2022-10-15T11:54:22;18.30;99.90
6738;DHT22;3406;49.902;8.596;2022-10-15T11:56:52;18.30;99.90
6738;DHT22;3406;49.902;8.596;2022-10-15T11:59:30;18.30;99.90
6738;DHT22;3406;49.902;8.596;2022-10-15T12:02:00;18.30;99.90
6738;DHT22;3406;49.902;8.596;2022-10-15T12:04:34;18.30;99.90
6738;DHT22;3406;49.902;8.596;2022-10-15T12:07:04;18.30;99.90
6738;DHT22;3406;49.902;8.596;2022-10-15T12:09:37;18.30;99.90
6738;DHT22;3406;49.902;8.596;2022-10-15T12:12:07;18.30;99.90
6738;DHT22;3406;49.902;8.596;2022-10-15T12:14:40;18.30;99.90
6738;DHT22;3406;49.902;8.596;2022-10-15T12:17:15;18.30;99.90
6738;DHT22;3406;49.902;8.596;2022-10-15T12:19:48;18.20;99.90
6738;DHT22;3406;49.902;8.596;2022-10-15T12:22:31;18.20;99.90
6738;DHT22;3406;49.902;8.596;2022-10-15T12:25:00;18.20;99.90
6738;DHT22;3406;49.902;8.596;2022-10-15T12:27:30;18.20;99.90
6738;DHT22;3406;49.902;8.596;2022-10-15T12:30:28;18.20;99.90
6738;DHT22;3406;49.902;8.596;2022-10-15T12:32:56;18.20;99.90
6738;DHT22;3406;49.902;8.596;2022-10-15T12:35:34;18.30;99.90
6738;DHT22;3406;49.902;8.596;2022-10-15T12:38:19;18.30;99.90
6738;DHT22;3406;49.902;8.596;2022-10-15T12:40:55;18.30;99.90
6738;DHT22;3406;49.902;8.596;2022-10-15T12:43:22;18.30;99.90
6738;DHT22;3406;49.902;8.596;2022-10-15T12:45:51;18.30;99.90
6738;DHT22;3406;49.902;8.596;2022-10-15T12:48:27;18.40;99.90
6738;DHT22;3406;49.902;8.596;2022-10-15T12:54:31;18.40;99.90
6738;DHT22;3406;49.902;8.596;2022-10-15T12:57:00;18.40;99.90
6738;DHT22;3406;49.902;8.596;2022-10-15T12:59:30;18.40;99.90
6738;DHT22;3406;49.902;8.596;2022-10-15T13:02:35;18.40;99.90
6738;DHT22;3406;49.902;8.596;2022-10-15T13:05:04;18.40;99.90
6738;DHT22;3406;49.902;8.596;2022-10-15T13:07:33;18.40;99.90
6738;DHT22;3406;49.902;8.596;2022-10-15T13:10:02;18.40;99.90
6738;DHT22;3406;49.902;8.596;2022-10-15T13:12:31;18.40;99.90
6738;DHT22;3406;49.902;8.596;2022-10-15T13:15:00;18.40;99.90
6738;DHT22;3406;49.902;8.596;2022-10-15T13:17:28;18.40;99.90
6738;DHT22;3406;49.902;8.596;2022-10-15T13:19:57;18.40;99.90
6738;DHT22;3406;49.902;8.596;2022-10-15T13:22:27;18.40;99.90
6738;DHT22;3406;49.902;8.596;2022-10-15T13:24:54;18.40;99.90
6738;DHT22;3406;49.902;8.596;2022-10-15T13:27:23;18.40;99.90
6738;DHT22;3406;49.902;8.596;2022-10-15T13:29:59;18.40;99.90
6738;DHT22;3406;49.902;8.596;2022-10-15T13:32:28;18.50;99.90
6738;DHT22;3406;49.902;8.596;2022-10-15T13:34:57;18.50;99.90
6738;DHT22;3406;49.902;8.596;2022-10-15T13:37:29;18.40;99.90
6738;DHT22;3406;49.902;8.596;2022-10-15T13:39:57;18.40;99.90
6738;DHT22;3406;49.902;8.596;2022-10-15T13:42:25;18.40;99.90
6738;DHT22;3406;49.902;8.596;2022-10-15T13:44:58;18.40;99.90
6738;DHT22;3406;49.902;8.596;2022-10-15T13:47:28;18.40;99.90
6738;DHT22;3406;49.902;8.596;2022-10-15T13:50:12;18.40;99.90
6738;DHT22;3406;49.902;8.596;2022-10-15T13:52:40;18.40;99.90
6738;DHT22;3406;49.902;8.596;2022-10-15T13:55:16;18.40;99.90
6738;DHT22;3406;49.902;8.596;2022-10-15T13:57:44;18.40;99.90
6738;DHT22;3406;49.902;8.596;2022-10-15T14:00:21;18.40;99.90
6738;DHT22;3406;49.902;8.596;2022-10-15T14:03:17;18.40;99.90
6738;DHT22;3406;49.902;8.596;2022-10-15T14:05:45;18.40;99.90
6738;DHT22;3406;49.902;8.596;2022-10-15T14:08:21;18.40;99.90
6738;DHT22;3406;49.902;8.596;2022-10-15T14:10:49;18.40;99.90
6738;DHT22;3406;49.902;8.596;2022-10-15T14:13:16;18.40;99.90
6738;DHT22;3406;49.902;8.596;2022-10-15T14:15:58;18.40;99.90
6738;DHT22;3406;49.902;8.596;2022-10-15T14:18:32;18.40;99.90
6738;DHT22;3406;49.902;8.596;2022-10-15T14:20:59;18.40;99.90
6738;DHT22;3406;49.902;8.596;2022-10-15T14:23:27;18.40;99.90
6738;DHT22;3406;49.902;8.596;2022-10-15T14:25:56;18.40;99.90
6738;DHT22;3406;49.902;8.596;2022-10-15T14:28:24;18.40;99.90
6738;DHT22;3406;49.902;8.596;2022-10-15T14:30:53;18.40;99.90
6738;DHT22;3406;49.902;8.596;2022-10-15T14:33:42;18.40;99.90
6738;DHT22;3406;49.902;8.596;2022-10-15T14:36:27;18.30;99.90
6738;DHT22;3406;49.902;8.596;2022-10-15T14:39:24;18.30;99.90
6738;DHT22;3406;49.902;8.596;2022-10-15T14:41:56;18.30;99.90
6738;DHT22;3406;49.902;8.596;2022-10-15T14:44:23;18.30;99.90
6738;DHT22;3406;49.902;8.596;2022-10-15T14:46:58;18.30;99.90
6738;DHT22;3406;49.902;8.596;2022-10-15T14:49:29;18.40;99.90
6738;DHT22;3406;49.902;8.596;2022-10-15T14:52:00;18.40;99.90
6738;DHT22;3406;49.902;8.596;2022-10-15T14:54:38;18.50;99.90
6738;DHT22;3406;49.902;8.596;2022-10-15T14:57:15;18.50;99.90
6738;DHT22;3406;49.902;8.596;2022-10-15T14:59:42;18.50;99.90
6738;DHT22;3406;49.902;8.596;2022-10-15T15:02:14;18.60;99.90
6738;DHT22;3406;49.902;8.596;2022-10-15T15:04:42;18.50;99.90
6738;DHT22;3406;49.902;8.596;2022-10-15T15:07:15;18.60;99.90
6738;DHT22;3406;49.902;8.596;2022-10-15T15:09:42;18.50;99.90
6738;DHT22;3406;49.902;8.596;2022-10-15T15:12:17;18.60;99.90
6738;DHT22;3406;49.902;8.596;2022-10-15T15:14:45;18.50;99.90
6738;DHT22;3406;49.902;8.596;2022-10-15T15:17:18;18.50;99.90
6738;DHT22;3406;49.902;8.596;2022-10-15T15:19:45;18.50;99.90
6738;DHT22;3406;49.902;8.596;2022-10-15T15:22:14;18.50;99.90
6738;DHT22;3406;49.902;8.596;2022-10-15T15:24:41;18.50;99.90
6738;DHT22;3406;49.902;8.596;2022-10-15T15:27:21;18.50;99.90
6738;DHT22;3406;49.902;8.596;2022-10-15T15:29:49;18.50;99.90
6738;DHT22;3406;49.902;8.596;2022-10-15T15:32:17;18.40;99.90
6738;DHT22;3406;49.902;8.596;2022-10-15T15:34:44;18.40;99.90
6738;DHT22;3406;49.902;8.596;2022-10-15T15:37:13;18.40;99.90
6738;DHT22;3406;49.902;8.596;2022-10-15T15:39:39;18.40;99.90
6738;DHT22;3406;49.902;8.596;2022-10-15T15:42:09;18.40;99.90
6738;DHT22;3406;49.902;8.596;2022-10-15T15:44:37;18.30;99.90
6738;DHT22;3406;49.902;8.596;2022-10-15T15:47:03;18.30;99.90
6738;DHT22;3406;49.902;8.596;2022-10-15T15:49:31;18.30;99.90
6738;DHT22;3406;49.902;8.596;2022-10-15T15:51:58;18.30;99.90
6738;DHT22;3406;49.902;8.596;2022-10-15T15:54:25;18.30;99.90
6738;DHT22;3406;49.902;8.596;2022-10-15T15:56:51;18.20;99.90
6738;DHT22;3406;49.902;8.596;2022-10-15T15:59:18;18.30;99.90
6738;DHT22;3406;49.902;8.596;2022-10-15T16:01:45;18.20;99.90
6738;DHT22;3406;49.902;8.596;2022-10-15T16:04:12;18.30;99.90
6738;DHT22;3406;49.902;8.596;2022-10-15T16:06:40;18.20;99.90
6738;DHT22;3406;49.902;8.596;2022-10-15T16:09:07;18.10;99.90
6738;DHT22;3406;49.902;8.596;2022-10-15T16:11:36;18.10;99.90
6738;DHT22;3406;49.902;8.596;2022-10-15T16:14:03;18.10;99.90
6738;DHT22;3406;49.902;8.596;2022-10-15T16:16:30;18.10;99.90
6738;DHT22;3406;49.902;8.596;2022-10-15T16:18:56;18.00;99.90
6738;DHT22;3406;49.902;8.596;2022-10-15T16:21:24;18.00;99.90
6738;DHT22;3406;49.902;8.596;2022-10-15T16:23:52;17.90;99.90
6738;DHT22;3406;49.902;8.596;2022-10-15T16:26:19;18.00;99.90
6738;DHT22;3406;49.902;8.596;2022-10-15T16:28:46;17.90;99.90